sensor_id;sensor_type;location;lat;lon;timestamp;P1;durP1;ratioP1;P2;durP2;ratioP2
5646;SDS011;2845;48.626;9.362;2023-04-29T00:02:20;2.80;;;1.08;;
5646;SDS011;2845;48.626;9.362;2023-04-29T00:04:54;2.00;;;1.05;;
5646;SDS011;2845;48.626;9.362;2023-04-29T00:07:30;2.08;;;0.98;;
5646;SDS011;2845;48.626;9.362;2023-04-29T00:10:05;2.00;;;1.20;;
5646;SDS011;2845;48.626;9.362;2023-04-29T00:12:40;2.00;;;0.80;;
5646;SDS011;2845;48.626;9.362;2023-04-29T00:15:16;2.25;;;1.00;;
5646;SDS011;2845;48.626;9.362;2023-04-29T00:17:50;1.85;;;0.80;;
5646;SDS011;2845;48.626;9.362;2023-04-29T00:20:25;1.38;;;0.80;;
5646;SDS011;2845;48.626;9.362;2023-04-29T00:22:59;2.78;;;0.98;;
5646;SDS011;2845;48.626;9.362;2023-04-29T00:25:34;1.52;;;0.90;;
5646;SDS011;2845;48.626;9.362;2023-04-29T00:28:10;2.10;;;1.20;;
5646;SDS011;2845;48.626;9.362;2023-04-29T00:30:45;1.70;;;1.08;;
5646;SDS011;2845;48.626;9.362;2023-04-29T00:33:19;1.77;;;0.85;;
5646;SDS011;2845;48.626;9.362;2023-04-29T00:35:54;1.60;;;0.80;;
5646;SDS011;2845;48.626;9.362;2023-04-29T00:38:33;2.15;;;0.70;;
5646;SDS011;2845;48.626;9.362;2023-04-29T00:41:07;1.63;;;0.80;;
5646;SDS011;2845;48.626;9.362;2023-04-29T00:43:42;1.38;;;0.70;;
5646;SDS011;2845;48.626;9.362;2023-04-29T00:46:17;1.45;;;0.80;;
5646;SDS011;2845;48.626;9.362;2023-04-29T00:48:52;1.65;;;1.00;;
5646;SDS011;2845;48.626;9.362;2023-04-29T00:51:28;2.42;;;0.88;;
5646;SDS011;2845;48.626;9.362;2023-04-29T00:54:04;1.55;;;0.80;;
5646;SDS011;2845;48.626;9.362;2023-04-29T00:56:39;1.67;;;0.85;;
5646;SDS011;2845;48.626;9.362;2023-04-29T00:59:14;1.83;;;0.95;;
5646;SDS011;2845;48.626;9.362;2023-04-29T01:01:49;1.38;;;0.60;;
5646;SDS011;2845;48.626;9.362;2023-04-29T01:04:25;2.08;;;0.98;;
5646;SDS011;2845;48.626;9.362;2023-04-29T01:07:00;1.63;;;0.70;;
5646;SDS011;2845;48.626;9.362;2023-04-29T01:09:47;1.15;;;0.77;;
5646;SDS011;2845;48.626;9.362;2023-04-29T01:12:35;1.10;;;0.75;;
5646;SDS011;2845;48.626;9.362;2023-04-29T01:15:20;1.98;;;0.90;;
5646;SDS011;2845;48.626;9.362;2023-04-29T01:17:58;1.55;;;0.80;;
5646;SDS011;2845;48.626;9.362;2023-04-29T01:20:36;1.98;;;0.60;;
5646;SDS011;2845;48.626;9.362;2023-04-29T01:23:11;1.25;;;0.63;;
5646;SDS011;2845;48.626;9.362;2023-04-29T01:25:47;1.63;;;0.70;;
5646;SDS011;2845;48.626;9.362;2023-04-29T01:28:25;2.15;;;0.70;;
5646;SDS011;2845;48.626;9.362;2023-04-29T01:31:14;1.73;;;1.00;;
5646;SDS011;2845;48.626;9.362;2023-04-29T01:33:58;1.60;;;1.08;;
5646;SDS011;2845;48.626;9.362;2023-04-29T01:36:44;1.25;;;0.70;;
5646;SDS011;2845;48.626;9.362;2023-04-29T01:39:26;1.27;;;0.60;;
5646;SDS011;2845;48.626;9.362;2023-04-29T01:42:14;2.50;;;1.00;;
5646;SDS011;2845;48.626;9.362;2023-04-29T01:44:59;1.80;;;0.80;;
5646;SDS011;2845;48.626;9.362;2023-04-29T01:47:36;1.98;;;1.00;;
5646;SDS011;2845;48.626;9.362;2023-04-29T01:50:12;1.08;;;0.60;;
5646;SDS011;2845;48.626;9.362;2023-04-29T01:52:47;1.80;;;0.90;;
5646;SDS011;2845;48.626;9.362;2023-04-29T01:55:22;2.30;;;0.88;;
5646;SDS011;2845;48.626;9.362;2023-04-29T01:57:58;1.60;;;0.75;;
5646;SDS011;2845;48.626;9.362;2023-04-29T02:00:32;1.20;;;0.70;;
5646;SDS011;2845;48.626;9.362;2023-04-29T02:03:06;1.17;;;0.70;;
5646;SDS011;2845;48.626;9.362;2023-04-29T02:05:41;1.00;;;0.47;;
5646;SDS011;2845;48.626;9.362;2023-04-29T02:08:15;1.08;;;0.70;;
5646;SDS011;2845;48.626;9.362;2023-04-29T02:10:53;1.05;;;0.60;;
5646;SDS011;2845;48.626;9.362;2023-04-29T02:13:29;1.35;;;0.82;;
5646;SDS011;2845;48.626;9.362;2023-04-29T02:16:07;1.25;;;0.77;;
5646;SDS011;2845;48.626;9.362;2023-04-29T02:18:42;1.80;;;0.95;;
5646;SDS011;2845;48.626;9.362;2023-04-29T02:21:16;2.03;;;0.85;;
5646;SDS011;2845;48.626;9.362;2023-04-29T02:23:50;1.38;;;0.90;;
5646;SDS011;2845;48.626;9.362;2023-04-29T02:26:25;1.77;;;0.95;;
5646;SDS011;2845;48.626;9.362;2023-04-29T02:29:01;1.73;;;0.75;;
5646;SDS011;2845;48.626;9.362;2023-04-29T02:31:35;2.00;;;0.93;;
5646;SDS011;2845;48.626;9.362;2023-04-29T02:34:09;1.75;;;0.95;;
5646;SDS011;2845;48.626;9.362;2023-04-29T02:36:43;2.40;;;0.90;;
5646;SDS011;2845;48.626;9.362;2023-04-29T02:39:17;1.77;;;1.00;;
5646;SDS011;2845;48.626;9.362;2023-04-29T02:41:52;2.40;;;1.10;;
5646;SDS011;2845;48.626;9.362;2023-04-29T02:44:29;1.58;;;0.90;;
5646;SDS011;2845;48.626;9.362;2023-04-29T02:47:04;1.77;;;0.90;;
5646;SDS011;2845;48.626;9.362;2023-04-29T02:49:38;1.45;;;0.70;;
5646;SDS011;2845;48.626;9.362;2023-04-29T02:52:12;3.38;;;0.80;;
5646;SDS011;2845;48.626;9.362;2023-04-29T02:54:46;1.55;;;0.95;;
5646;SDS011;2845;48.626;9.362;2023-04-29T02:57:20;2.05;;;0.85;;
5646;SDS011;2845;48.626;9.362;2023-04-29T02:59:56;1.27;;;0.70;;
5646;SDS011;2845;48.626;9.362;2023-04-29T03:02:30;2.05;;;0.98;;
5646;SDS011;2845;48.626;9.362;2023-04-29T03:05:05;2.03;;;0.93;;
5646;SDS011;2845;48.626;9.362;2023-04-29T03:07:40;1.15;;;0.85;;
5646;SDS011;2845;48.626;9.362;2023-04-29T03:10:15;1.65;;;0.95;;
5646;SDS011;2845;48.626;9.362;2023-04-29T03:12:51;1.33;;;0.60;;
5646;SDS011;2845;48.626;9.362;2023-04-29T03:15:27;1.30;;;0.90;;
5646;SDS011;2845;48.626;9.362;2023-04-29T03:18:01;1.35;;;0.70;;
5646;SDS011;2845;48.626;9.362;2023-04-29T03:20:36;1.50;;;0.70;;
5646;SDS011;2845;48.626;9.362;2023-04-29T03:23:10;0.75;;;0.60;;
5646;SDS011;2845;48.626;9.362;2023-04-29T03:25:44;1.83;;;0.90;;
5646;SDS011;2845;48.626;9.362;2023-04-29T03:28:18;2.47;;;0.82;;
5646;SDS011;2845;48.626;9.362;2023-04-29T03:30:54;0.75;;;0.50;;
5646;SDS011;2845;48.626;9.362;2023-04-29T03:33:30;0.90;;;0.60;;
5646;SDS011;2845;48.626;9.362;2023-04-29T03:36:05;4.32;;;0.70;;
5646;SDS011;2845;48.626;9.362;2023-04-29T03:38:39;1.88;;;0.73;;
5646;SDS011;2845;48.626;9.362;2023-04-29T03:41:14;1.10;;;0.50;;
5646;SDS011;2845;48.626;9.362;2023-04-29T03:43:48;0.88;;;0.40;;
5646;SDS011;2845;48.626;9.362;2023-04-29T03:46:24;1.45;;;0.60;;
5646;SDS011;2845;48.626;9.362;2023-04-29T03:48:58;1.77;;;0.82;;
5646;SDS011;2845;48.626;9.362;2023-04-29T03:51:32;2.75;;;1.00;;
5646;SDS011;2845;48.626;9.362;2023-04-29T03:54:06;1.40;;;0.77;;
5646;SDS011;2845;48.626;9.362;2023-04-29T03:56:41;1.23;;;0.65;;
5646;SDS011;2845;48.626;9.362;2023-04-29T03:59:15;1.27;;;0.50;;
5646;SDS011;2845;48.626;9.362;2023-04-29T04:01:50;2.40;;;0.77;;
5646;SDS011;2845;48.626;9.362;2023-04-29T04:04:25;1.95;;;0.85;;
5646;SDS011;2845;48.626;9.362;2023-04-29T04:07:00;2.08;;;0.90;;
5646;SDS011;2845;48.626;9.362;2023-04-29T04:09:35;2.15;;;0.90;;
5646;SDS011;2845;48.626;9.362;2023-04-29T04:12:09;1.60;;;0.90;;
5646;SDS011;2845;48.626;9.362;2023-04-29T04:14:43;2.35;;;1.00;;
5646;SDS011;2845;48.626;9.362;2023-04-29T04:17:19;1.50;;;0.80;;
5646;SDS011;2845;48.626;9.362;2023-04-29T04:19:53;2.83;;;1.05;;
5646;SDS011;2845;48.626;9.362;2023-04-29T04:22:28;1.73;;;0.80;;
5646;SDS011;2845;48.626;9.362;2023-04-29T04:25:02;2.95;;;1.10;;
5646;SDS011;2845;48.626;9.362;2023-04-29T04:27:37;2.15;;;1.10;;
5646;SDS011;2845;48.626;9.362;2023-04-29T04:30:11;2.65;;;1.27;;
5646;SDS011;2845;48.626;9.362;2023-04-29T04:32:46;1.83;;;1.00;;
5646;SDS011;2845;48.626;9.362;2023-04-29T04:35:21;3.03;;;1.35;;
5646;SDS011;2845;48.626;9.362;2023-04-29T04:37:55;2.92;;;1.10;;
5646;SDS011;2845;48.626;9.362;2023-04-29T04:40:30;2.72;;;1.10;;
5646;SDS011;2845;48.626;9.362;2023-04-29T04:43:05;1.98;;;1.08;;
5646;SDS011;2845;48.626;9.362;2023-04-29T04:45:39;2.42;;;1.10;;
5646;SDS011;2845;48.626;9.362;2023-04-29T04:48:14;1.88;;;0.90;;
5646;SDS011;2845;48.626;9.362;2023-04-29T04:50:48;2.47;;;0.95;;
5646;SDS011;2845;48.626;9.362;2023-04-29T04:53:22;2.35;;;1.10;;
5646;SDS011;2845;48.626;9.362;2023-04-29T04:55:59;2.30;;;0.90;;
5646;SDS011;2845;48.626;9.362;2023-04-29T04:58:33;1.40;;;0.90;;
5646;SDS011;2845;48.626;9.362;2023-04-29T05:01:07;1.52;;;0.95;;
5646;SDS011;2845;48.626;9.362;2023-04-29T05:03:43;1.45;;;0.60;;
5646;SDS011;2845;48.626;9.362;2023-04-29T05:06:17;2.95;;;0.98;;
5646;SDS011;2845;48.626;9.362;2023-04-29T05:08:52;1.75;;;0.77;;
5646;SDS011;2845;48.626;9.362;2023-04-29T05:11:26;1.75;;;0.90;;
5646;SDS011;2845;48.626;9.362;2023-04-29T05:14:00;2.40;;;1.02;;
5646;SDS011;2845;48.626;9.362;2023-04-29T05:16:34;2.35;;;1.10;;
5646;SDS011;2845;48.626;9.362;2023-04-29T05:19:10;2.15;;;1.10;;
5646;SDS011;2845;48.626;9.362;2023-04-29T05:21:45;2.88;;;1.17;;
5646;SDS011;2845;48.626;9.362;2023-04-29T05:24:19;4.25;;;1.30;;
5646;SDS011;2845;48.626;9.362;2023-04-29T05:26:53;4.97;;;1.48;;
5646;SDS011;2845;48.626;9.362;2023-04-29T05:29:27;2.97;;;1.38;;
5646;SDS011;2845;48.626;9.362;2023-04-29T05:32:01;2.85;;;1.10;;
5646;SDS011;2845;48.626;9.362;2023-04-29T05:34:37;4.68;;;1.27;;
5646;SDS011;2845;48.626;9.362;2023-04-29T05:37:11;2.53;;;1.23;;
5646;SDS011;2845;48.626;9.362;2023-04-29T05:39:45;3.15;;;1.17;;
5646;SDS011;2845;48.626;9.362;2023-04-29T05:42:19;1.98;;;0.98;;
5646;SDS011;2845;48.626;9.362;2023-04-29T05:44:54;1.40;;;0.73;;
5646;SDS011;2845;48.626;9.362;2023-04-29T05:47:29;1.58;;;0.90;;
5646;SDS011;2845;48.626;9.362;2023-04-29T05:50:05;1.70;;;0.90;;
5646;SDS011;2845;48.626;9.362;2023-04-29T05:52:40;2.17;;;0.88;;
5646;SDS011;2845;48.626;9.362;2023-04-29T05:55:14;2.40;;;1.23;;
5646;SDS011;2845;48.626;9.362;2023-04-29T05:57:49;2.42;;;1.60;;
5646;SDS011;2845;48.626;9.362;2023-04-29T06:00:23;2.42;;;1.20;;
5646;SDS011;2845;48.626;9.362;2023-04-29T06:02:57;1.95;;;1.10;;
5646;SDS011;2845;48.626;9.362;2023-04-29T06:05:33;3.58;;;1.38;;
5646;SDS011;2845;48.626;9.362;2023-04-29T06:08:08;1.60;;;0.90;;
5646;SDS011;2845;48.626;9.362;2023-04-29T06:10:42;1.73;;;1.08;;
5646;SDS011;2845;48.626;9.362;2023-04-29T06:13:17;2.10;;;1.08;;
5646;SDS011;2845;48.626;9.362;2023-04-29T06:15:51;1.88;;;1.00;;
5646;SDS011;2845;48.626;9.362;2023-04-29T06:18:25;1.92;;;0.88;;
5646;SDS011;2845;48.626;9.362;2023-04-29T06:21:01;1.77;;;1.10;;
5646;SDS011;2845;48.626;9.362;2023-04-29T06:23:35;3.35;;;1.35;;
5646;SDS011;2845;48.626;9.362;2023-04-29T06:26:09;1.98;;;1.23;;
5646;SDS011;2845;48.626;9.362;2023-04-29T06:28:44;3.70;;;1.00;;
5646;SDS011;2845;48.626;9.362;2023-04-29T06:31:18;2.03;;;1.10;;
5646;SDS011;2845;48.626;9.362;2023-04-29T06:33:54;2.28;;;1.23;;
5646;SDS011;2845;48.626;9.362;2023-04-29T06:36:30;2.55;;;1.45;;
5646;SDS011;2845;48.626;9.362;2023-04-29T06:39:04;2.25;;;1.30;;
5646;SDS011;2845;48.626;9.362;2023-04-29T06:41:38;1.42;;;0.85;;
5646;SDS011;2845;48.626;9.362;2023-04-29T06:44:12;3.38;;;1.20;;
5646;SDS011;2845;48.626;9.362;2023-04-29T06:46:48;2.03;;;0.98;;
5646;SDS011;2845;48.626;9.362;2023-04-29T06:49:22;2.22;;;1.23;;
5646;SDS011;2845;48.626;9.362;2023-04-29T06:51:57;1.80;;;1.00;;
5646;SDS011;2845;48.626;9.362;2023-04-29T06:54:33;1.55;;;1.02;;
5646;SDS011;2845;48.626;9.362;2023-04-29T06:57:07;1.77;;;0.90;;
5646;SDS011;2845;48.626;9.362;2023-04-29T06:59:41;2.63;;;1.40;;
5646;SDS011;2845;48.626;9.362;2023-04-29T07:02:16;2.50;;;1.38;;
5646;SDS011;2845;48.626;9.362;2023-04-29T07:04:50;1.63;;;1.17;;
5646;SDS011;2845;48.626;9.362;2023-04-29T07:07:26;1.70;;;1.10;;
5646;SDS011;2845;48.626;9.362;2023-04-29T07:10:00;1.75;;;1.00;;
5646;SDS011;2845;48.626;9.362;2023-04-29T07:12:34;1.67;;;1.05;;
5646;SDS011;2845;48.626;9.362;2023-04-29T07:15:09;1.77;;;0.90;;
5646;SDS011;2845;48.626;9.362;2023-04-29T07:17:43;1.90;;;1.10;;
5646;SDS011;2845;48.626;9.362;2023-04-29T07:20:18;1.88;;;0.98;;
5646;SDS011;2845;48.626;9.362;2023-04-29T07:22:55;1.75;;;0.95;;
5646;SDS011;2845;48.626;9.362;2023-04-29T07:25:31;1.33;;;0.90;;
5646;SDS011;2845;48.626;9.362;2023-04-29T07:28:05;1.98;;;1.00;;
5646;SDS011;2845;48.626;9.362;2023-04-29T07:30:40;2.20;;;0.60;;
5646;SDS011;2845;48.626;9.362;2023-04-29T07:33:14;1.25;;;0.70;;
5646;SDS011;2845;48.626;9.362;2023-04-29T07:35:49;1.63;;;0.82;;
5646;SDS011;2845;48.626;9.362;2023-04-29T07:38:24;1.08;;;0.85;;
5646;SDS011;2845;48.626;9.362;2023-04-29T07:40:58;1.70;;;1.00;;
5646;SDS011;2845;48.626;9.362;2023-04-29T07:43:35;1.85;;;1.25;;
5646;SDS011;2845;48.626;9.362;2023-04-29T07:46:12;1.80;;;1.05;;
5646;SDS011;2845;48.626;9.362;2023-04-29T07:48:48;3.78;;;1.42;;
5646;SDS011;2845;48.626;9.362;2023-04-29T07:51:23;2.20;;;1.23;;
5646;SDS011;2845;48.626;9.362;2023-04-29T07:54:02;2.47;;;1.33;;
5646;SDS011;2845;48.626;9.362;2023-04-29T07:56:36;1.88;;;1.20;;
5646;SDS011;2845;48.626;9.362;2023-04-29T07:59:10;2.05;;;1.00;;
5646;SDS011;2845;48.626;9.362;2023-04-29T08:01:44;2.72;;;1.40;;
5646;SDS011;2845;48.626;9.362;2023-04-29T08:04:19;3.53;;;1.80;;
5646;SDS011;2845;48.626;9.362;2023-04-29T08:06:53;1.90;;;1.30;;
5646;SDS011;2845;48.626;9.362;2023-04-29T08:09:28;2.72;;;1.33;;
5646;SDS011;2845;48.626;9.362;2023-04-29T08:12:03;2.55;;;1.48;;
5646;SDS011;2845;48.626;9.362;2023-04-29T08:14:38;1.63;;;1.10;;
5646;SDS011;2845;48.626;9.362;2023-04-29T08:17:12;1.55;;;0.90;;
5646;SDS011;2845;48.626;9.362;2023-04-29T08:19:46;1.58;;;1.00;;
5646;SDS011;2845;48.626;9.362;2023-04-29T08:22:20;1.90;;;1.10;;
5646;SDS011;2845;48.626;9.362;2023-04-29T08:24:55;1.25;;;0.90;;
5646;SDS011;2845;48.626;9.362;2023-04-29T08:27:29;1.88;;;1.00;;
5646;SDS011;2845;48.626;9.362;2023-04-29T08:30:04;1.73;;;0.95;;
5646;SDS011;2845;48.626;9.362;2023-04-29T08:32:40;1.45;;;0.80;;
5646;SDS011;2845;48.626;9.362;2023-04-29T08:35:14;1.27;;;0.82;;
5646;SDS011;2845;48.626;9.362;2023-04-29T08:37:49;0.70;;;0.55;;
5646;SDS011;2845;48.626;9.362;2023-04-29T08:40:28;1.67;;;0.65;;
5646;SDS011;2845;48.626;9.362;2023-04-29T08:43:03;1.55;;;0.57;;
5646;SDS011;2845;48.626;9.362;2023-04-29T08:45:37;1.02;;;0.68;;
5646;SDS011;2845;48.626;9.362;2023-04-29T08:48:12;0.43;;;0.40;;
5646;SDS011;2845;48.626;9.362;2023-04-29T08:50:48;1.10;;;0.60;;
5646;SDS011;2845;48.626;9.362;2023-04-29T08:53:22;0.82;;;0.52;;
5646;SDS011;2845;48.626;9.362;2023-04-29T08:56:00;0.90;;;0.55;;
5646;SDS011;2845;48.626;9.362;2023-04-29T08:58:42;1.23;;;0.60;;
5646;SDS011;2845;48.626;9.362;2023-04-29T09:01:17;1.17;;;0.68;;
5646;SDS011;2845;48.626;9.362;2023-04-29T09:03:53;3.08;;;0.60;;
5646;SDS011;2845;48.626;9.362;2023-04-29T09:06:41;2.08;;;0.50;;
5646;SDS011;2845;48.626;9.362;2023-04-29T09:09:15;0.85;;;0.47;;
5646;SDS011;2845;48.626;9.362;2023-04-29T09:11:53;1.15;;;0.50;;
5646;SDS011;2845;48.626;9.362;2023-04-29T09:14:28;0.45;;;0.40;;
5646;SDS011;2845;48.626;9.362;2023-04-29T09:17:05;0.50;;;0.30;;
5646;SDS011;2845;48.626;9.362;2023-04-29T09:19:39;2.35;;;0.40;;
5646;SDS011;2845;48.626;9.362;2023-04-29T09:22:13;0.63;;;0.40;;
5646;SDS011;2845;48.626;9.362;2023-04-29T09:24:47;1.00;;;0.50;;
5646;SDS011;2845;48.626;9.362;2023-04-29T09:27:26;0.60;;;0.50;;
5646;SDS011;2845;48.626;9.362;2023-04-29T09:30:01;0.98;;;0.50;;
5646;SDS011;2845;48.626;9.362;2023-04-29T09:32:36;0.65;;;0.30;;
5646;SDS011;2845;48.626;9.362;2023-04-29T09:35:20;1.27;;;0.50;;
5646;SDS011;2845;48.626;9.362;2023-04-29T09:38:07;0.95;;;0.50;;
5646;SDS011;2845;48.626;9.362;2023-04-29T09:40:44;0.80;;;0.40;;
5646;SDS011;2845;48.626;9.362;2023-04-29T09:43:33;0.55;;;0.35;;
5646;SDS011;2845;48.626;9.362;2023-04-29T09:46:11;1.45;;;0.50;;
5646;SDS011;2845;48.626;9.362;2023-04-29T09:48:45;0.65;;;0.43;;
5646;SDS011;2845;48.626;9.362;2023-04-29T09:51:19;0.77;;;0.40;;
5646;SDS011;2845;48.626;9.362;2023-04-29T09:53:55;1.10;;;0.50;;
5646;SDS011;2845;48.626;9.362;2023-04-29T09:56:31;1.30;;;0.70;;
5646;SDS011;2845;48.626;9.362;2023-04-29T09:59:24;1.45;;;0.75;;
5646;SDS011;2845;48.626;9.362;2023-04-29T10:01:58;1.65;;;0.90;;
5646;SDS011;2845;48.626;9.362;2023-04-29T10:04:35;1.10;;;1.00;;
5646;SDS011;2845;48.626;9.362;2023-04-29T10:07:14;2.00;;;1.13;;
5646;SDS011;2845;48.626;9.362;2023-04-29T10:09:50;1.98;;;1.13;;
5646;SDS011;2845;48.626;9.362;2023-04-29T10:12:24;1.52;;;0.93;;
5646;SDS011;2845;48.626;9.362;2023-04-29T10:15:01;1.52;;;0.98;;
5646;SDS011;2845;48.626;9.362;2023-04-29T10:17:41;1.88;;;1.00;;
5646;SDS011;2845;48.626;9.362;2023-04-29T10:20:20;1.55;;;1.00;;
5646;SDS011;2845;48.626;9.362;2023-04-29T10:22:56;1.25;;;0.90;;
5646;SDS011;2845;48.626;9.362;2023-04-29T10:25:31;1.65;;;0.88;;
5646;SDS011;2845;48.626;9.362;2023-04-29T10:28:08;1.55;;;0.80;;
5646;SDS011;2845;48.626;9.362;2023-04-29T10:30:50;1.38;;;0.98;;
5646;SDS011;2845;48.626;9.362;2023-04-29T10:33:27;2.30;;;1.13;;
5646;SDS011;2845;48.626;9.362;2023-04-29T10:36:05;1.35;;;0.90;;
5646;SDS011;2845;48.626;9.362;2023-04-29T10:38:41;1.50;;;0.80;;
5646;SDS011;2845;48.626;9.362;2023-04-29T10:41:22;1.40;;;0.80;;
5646;SDS011;2845;48.626;9.362;2023-04-29T10:44:00;1.13;;;0.80;;
5646;SDS011;2845;48.626;9.362;2023-04-29T10:46:37;1.38;;;0.80;;
5646;SDS011;2845;48.626;9.362;2023-04-29T10:49:11;2.15;;;0.95;;
5646;SDS011;2845;48.626;9.362;2023-04-29T10:51:45;1.40;;;1.08;;
5646;SDS011;2845;48.626;9.362;2023-04-29T10:54:19;3.53;;;1.20;;
5646;SDS011;2845;48.626;9.362;2023-04-29T10:56:57;3.67;;;1.17;;
5646;SDS011;2845;48.626;9.362;2023-04-29T10:59:44;2.28;;;1.10;;
5646;SDS011;2845;48.626;9.362;2023-04-29T11:02:20;1.05;;;0.63;;
5646;SDS011;2845;48.626;9.362;2023-04-29T11:05:08;1.45;;;0.80;;
5646;SDS011;2845;48.626;9.362;2023-04-29T11:07:44;0.90;;;0.77;;
5646;SDS011;2845;48.626;9.362;2023-04-29T11:10:18;2.17;;;0.90;;
5646;SDS011;2845;48.626;9.362;2023-04-29T11:16:02;3.28;;;0.90;;
5646;SDS011;2845;48.626;9.362;2023-04-29T11:21:39;0.65;;;0.40;;
5646;SDS011;2845;48.626;9.362;2023-04-29T11:24:13;1.23;;;0.60;;
5646;SDS011;2845;48.626;9.362;2023-04-29T11:26:48;1.75;;;0.60;;
5646;SDS011;2845;48.626;9.362;2023-04-29T11:29:25;1.38;;;0.90;;
5646;SDS011;2845;48.626;9.362;2023-04-29T11:32:00;1.90;;;1.00;;
5646;SDS011;2845;48.626;9.362;2023-04-29T11:34:37;4.05;;;0.90;;
5646;SDS011;2845;48.626;9.362;2023-04-29T11:37:11;1.27;;;0.80;;
5646;SDS011;2845;48.626;9.362;2023-04-29T11:39:45;3.08;;;1.20;;
5646;SDS011;2845;48.626;9.362;2023-04-29T11:42:21;2.13;;;1.08;;
5646;SDS011;2845;48.626;9.362;2023-04-29T11:44:56;1.85;;;0.93;;
5646;SDS011;2845;48.626;9.362;2023-04-29T11:47:33;1.40;;;0.90;;
5646;SDS011;2845;48.626;9.362;2023-04-29T11:50:08;2.45;;;1.10;;
5646;SDS011;2845;48.626;9.362;2023-04-29T11:52:43;1.00;;;0.70;;
5646;SDS011;2845;48.626;9.362;2023-04-29T11:55:20;2.35;;;1.00;;
5646;SDS011;2845;48.626;9.362;2023-04-29T11:57:54;3.20;;;1.30;;
5646;SDS011;2845;48.626;9.362;2023-04-29T12:00:28;1.42;;;0.70;;
5646;SDS011;2845;48.626;9.362;2023-04-29T12:03:06;1.92;;;0.95;;
5646;SDS011;2845;48.626;9.362;2023-04-29T12:05:47;1.10;;;0.80;;
5646;SDS011;2845;48.626;9.362;2023-04-29T12:08:25;1.20;;;0.90;;
5646;SDS011;2845;48.626;9.362;2023-04-29T12:11:01;2.47;;;1.25;;
5646;SDS011;2845;48.626;9.362;2023-04-29T12:13:35;1.27;;;0.70;;
5646;SDS011;2845;48.626;9.362;2023-04-29T12:16:10;2.53;;;1.00;;
5646;SDS011;2845;48.626;9.362;2023-04-29T12:18:46;1.10;;;0.80;;
5646;SDS011;2845;48.626;9.362;2023-04-29T12:21:22;1.00;;;0.77;;
5646;SDS011;2845;48.626;9.362;2023-04-29T12:23:57;2.17;;;0.93;;
5646;SDS011;2845;48.626;9.362;2023-04-29T12:26:35;1.58;;;0.70;;
5646;SDS011;2845;48.626;9.362;2023-04-29T12:29:13;2.13;;;0.80;;
5646;SDS011;2845;48.626;9.362;2023-04-29T12:31:47;2.40;;;0.90;;
5646;SDS011;2845;48.626;9.362;2023-04-29T12:34:27;2.95;;;0.80;;
5646;SDS011;2845;48.626;9.362;2023-04-29T12:37:04;3.42;;;1.05;;
5646;SDS011;2845;48.626;9.362;2023-04-29T12:39:38;1.58;;;0.90;;
5646;SDS011;2845;48.626;9.362;2023-04-29T12:42:15;1.35;;;0.80;;
5646;SDS011;2845;48.626;9.362;2023-04-29T12:44:49;1.75;;;0.80;;
5646;SDS011;2845;48.626;9.362;2023-04-29T12:47:23;1.83;;;1.05;;
5646;SDS011;2845;48.626;9.362;2023-04-29T12:50:06;1.75;;;1.10;;
5646;SDS011;2845;48.626;9.362;2023-04-29T12:52:42;3.03;;;1.13;;
5646;SDS011;2845;48.626;9.362;2023-04-29T12:55:17;2.05;;;1.08;;
5646;SDS011;2845;48.626;9.362;2023-04-29T12:57:51;2.08;;;1.20;;
5646;SDS011;2845;48.626;9.362;2023-04-29T13:00:25;2.65;;;1.50;;
5646;SDS011;2845;48.626;9.362;2023-04-29T13:02:59;2.17;;;1.13;;
5646;SDS011;2845;48.626;9.362;2023-04-29T13:05:35;2.90;;;1.10;;
5646;SDS011;2845;48.626;9.362;2023-04-29T13:08:11;2.50;;;1.35;;
5646;SDS011;2845;48.626;9.362;2023-04-29T13:10:47;3.03;;;1.50;;
5646;SDS011;2845;48.626;9.362;2023-04-29T13:13:21;2.15;;;1.35;;
5646;SDS011;2845;48.626;9.362;2023-04-29T13:15:55;2.33;;;1.33;;
5646;SDS011;2845;48.626;9.362;2023-04-29T13:18:29;2.45;;;1.25;;
5646;SDS011;2845;48.626;9.362;2023-04-29T13:21:07;2.10;;;1.30;;
5646;SDS011;2845;48.626;9.362;2023-04-29T13:23:43;2.08;;;1.25;;
5646;SDS011;2845;48.626;9.362;2023-04-29T13:26:17;2.95;;;1.35;;
5646;SDS011;2845;48.626;9.362;2023-04-29T13:28:57;1.92;;;1.05;;
5646;SDS011;2845;48.626;9.362;2023-04-29T13:31:34;8.15;;;1.42;;
5646;SDS011;2845;48.626;9.362;2023-04-29T13:34:08;2.08;;;1.08;;
5646;SDS011;2845;48.626;9.362;2023-04-29T13:36:43;3.83;;;1.42;;
5646;SDS011;2845;48.626;9.362;2023-04-29T13:39:18;2.00;;;1.00;;
5646;SDS011;2845;48.626;9.362;2023-04-29T13:41:54;2.35;;;1.35;;
5646;SDS011;2845;48.626;9.362;2023-04-29T13:44:30;2.85;;;1.45;;
5646;SDS011;2845;48.626;9.362;2023-04-29T13:47:22;2.67;;;1.50;;
5646;SDS011;2845;48.626;9.362;2023-04-29T13:50:01;2.22;;;1.40;;
5646;SDS011;2845;48.626;9.362;2023-04-29T13:52:38;2.60;;;1.50;;
5646;SDS011;2845;48.626;9.362;2023-04-29T13:55:17;3.72;;;1.60;;
5646;SDS011;2845;48.626;9.362;2023-04-29T13:57:54;3.63;;;1.95;;
5646;SDS011;2845;48.626;9.362;2023-04-29T14:00:33;2.90;;;1.73;;
5646;SDS011;2845;48.626;9.362;2023-04-29T14:03:10;4.43;;;1.70;;
5646;SDS011;2845;48.626;9.362;2023-04-29T14:05:44;3.72;;;1.92;;
5646;SDS011;2845;48.626;9.362;2023-04-29T14:08:18;2.50;;;1.33;;
5646;SDS011;2845;48.626;9.362;2023-04-29T14:10:54;3.97;;;1.77;;
5646;SDS011;2845;48.626;9.362;2023-04-29T14:13:29;5.10;;;1.85;;
5646;SDS011;2845;48.626;9.362;2023-04-29T14:16:03;4.47;;;2.20;;
5646;SDS011;2845;48.626;9.362;2023-04-29T14:18:38;3.03;;;1.80;;
5646;SDS011;2845;48.626;9.362;2023-04-29T14:21:13;3.50;;;1.55;;
5646;SDS011;2845;48.626;9.362;2023-04-29T14:23:47;3.20;;;1.80;;
5646;SDS011;2845;48.626;9.362;2023-04-29T14:26:22;5.03;;;1.63;;
5646;SDS011;2845;48.626;9.362;2023-04-29T14:29:00;3.85;;;1.73;;
5646;SDS011;2845;48.626;9.362;2023-04-29T14:31:36;3.28;;;1.70;;
5646;SDS011;2845;48.626;9.362;2023-04-29T14:34:10;4.15;;;1.83;;
5646;SDS011;2845;48.626;9.362;2023-04-29T14:36:44;3.33;;;1.60;;
5646;SDS011;2845;48.626;9.362;2023-04-29T14:39:19;4.50;;;1.85;;
5646;SDS011;2845;48.626;9.362;2023-04-29T14:41:55;3.90;;;1.95;;
5646;SDS011;2845;48.626;9.362;2023-04-29T14:44:29;3.05;;;1.67;;
5646;SDS011;2845;48.626;9.362;2023-04-29T14:47:03;4.05;;;1.73;;
5646;SDS011;2845;48.626;9.362;2023-04-29T14:49:38;4.25;;;1.77;;
5646;SDS011;2845;48.626;9.362;2023-04-29T14:52:13;4.65;;;2.25;;
5646;SDS011;2845;48.626;9.362;2023-04-29T14:54:48;3.72;;;2.15;;
5646;SDS011;2845;48.626;9.362;2023-04-29T14:57:24;3.88;;;1.73;;
5646;SDS011;2845;48.626;9.362;2023-04-29T14:59:58;4.75;;;2.15;;
5646;SDS011;2845;48.626;9.362;2023-04-29T15:02:33;3.85;;;1.90;;
5646;SDS011;2845;48.626;9.362;2023-04-29T15:05:07;3.20;;;1.52;;
5646;SDS011;2845;48.626;9.362;2023-04-29T15:07:42;2.88;;;1.38;;
5646;SDS011;2845;48.626;9.362;2023-04-29T15:10:16;4.45;;;2.15;;
5646;SDS011;2845;48.626;9.362;2023-04-29T15:12:52;4.18;;;1.83;;
5646;SDS011;2845;48.626;9.362;2023-04-29T15:15:26;4.53;;;1.77;;
5646;SDS011;2845;48.626;9.362;2023-04-29T15:18:03;4.53;;;2.00;;
5646;SDS011;2845;48.626;9.362;2023-04-29T15:20:40;4.65;;;2.13;;
5646;SDS011;2845;48.626;9.362;2023-04-29T15:23:14;3.33;;;1.90;;
5646;SDS011;2845;48.626;9.362;2023-04-29T15:25:48;3.63;;;1.90;;
5646;SDS011;2845;48.626;9.362;2023-04-29T15:28:25;5.22;;;2.47;;
5646;SDS011;2845;48.626;9.362;2023-04-29T15:30:59;5.43;;;2.88;;
5646;SDS011;2845;48.626;9.362;2023-04-29T15:33:36;5.30;;;2.65;;
5646;SDS011;2845;48.626;9.362;2023-04-29T15:36:10;6.68;;;3.13;;
5646;SDS011;2845;48.626;9.362;2023-04-29T15:38:44;4.28;;;1.95;;
5646;SDS011;2845;48.626;9.362;2023-04-29T15:41:18;4.65;;;2.15;;
5646;SDS011;2845;48.626;9.362;2023-04-29T15:43:54;5.47;;;2.60;;
5646;SDS011;2845;48.626;9.362;2023-04-29T15:46:29;5.10;;;2.47;;
5646;SDS011;2845;48.626;9.362;2023-04-29T15:49:04;5.22;;;2.20;;
5646;SDS011;2845;48.626;9.362;2023-04-29T15:51:39;4.85;;;2.60;;
5646;SDS011;2845;48.626;9.362;2023-04-29T15:54:13;4.05;;;2.30;;
5646;SDS011;2845;48.626;9.362;2023-04-29T15:56:48;5.00;;;2.10;;
5646;SDS011;2845;48.626;9.362;2023-04-29T15:59:23;7.68;;;2.67;;
5646;SDS011;2845;48.626;9.362;2023-04-29T16:01:58;4.70;;;2.45;;
5646;SDS011;2845;48.626;9.362;2023-04-29T16:04:32;5.07;;;2.60;;
5646;SDS011;2845;48.626;9.362;2023-04-29T16:07:07;5.95;;;2.40;;
5646;SDS011;2845;48.626;9.362;2023-04-29T16:09:42;5.13;;;2.35;;
5646;SDS011;2845;48.626;9.362;2023-04-29T16:12:17;8.15;;;2.53;;
5646;SDS011;2845;48.626;9.362;2023-04-29T16:14:53;7.25;;;2.65;;